Time;durP1;ratioP1;P1;durP2;ratioP2;P2;SDS_P1;SDS_P2;PMS_P1;PMS_P2;Temp;Humidity;BMP_temperature;BMP_pressure;BME280_temperature;BME280_humidity;BME280_pressure;Samples;Min_cycle;Max_cycle;Signal;HPM_P1;HPM_P2
2023/05/20 00:01:03;;;;;;;6.70;2.72;;;13.30;67.90;;;;;;6183591;22;93438;-77
2023/05/20 00:03:29;;;;;;;10.35;2.38;;;13.30;67.30;;;;;;6183703;22;92523;-76
2023/05/20 00:05:54;;;;;;;5.70;2.10;;;13.20;67.90;;;;;;6183751;22;91782;-76
2023/05/20 00:08:20;;;;;;;5.65;2.63;;;13.20;68.10;;;;;;6182846;22;94072;-76
2023/05/20 00:10:46;;;;;;;4.30;2.33;;;13.20;68.10;;;;;;6182728;22;93348;-76
2023/05/20 00:13:11;;;;;;;3.65;2.13;;;13.10;68.20;;;;;;6207825;22;93019;-76
2023/05/20 00:15:37;;;;;;;4.88;2.42;;;13.00;68.40;;;;;;6182885;22;100491;-76
2023/05/20 00:18:03;;;;;;;5.38;2.30;;;13.00;69.30;;;;;;6182957;22;92869;-76
2023/05/20 00:20:29;;;;;;;4.85;2.58;;;12.90;69.90;;;;;;6183140;22;93561;-76
2023/05/20 00:22:55;;;;;;;3.90;2.10;;;12.90;69.00;;;;;;6183753;22;92526;-76
2023/05/20 00:25:21;;;;;;;6.75;2.55;;;12.90;69.40;;;;;;6183449;22;92599;-76
2023/05/20 00:27:46;;;;;;;6.47;2.40;;;12.80;69.90;;;;;;6184285;22;93241;-76
2023/05/20 00:30:12;;;;;;;7.90;2.35;;;12.80;69.60;;;;;;6183669;22;93781;-76
2023/05/20 00:32:38;;;;;;;3.22;2.30;;;12.80;70.90;;;;;;6207727;22;92561;-76
2023/05/20 00:35:05;;;;;;;5.70;2.83;;;12.70;70.70;;;;;;6183344;22;92263;-76
2023/05/20 00:37:30;;;;;;;5.65;2.78;;;12.70;70.30;;;;;;6182655;22;94619;-77
2023/05/20 00:39:56;;;;;;;7.25;2.58;;;12.70;70.10;;;;;;6184158;22;93867;-77
2023/05/20 00:42:27;;;;;;;4.47;2.38;;;12.60;70.10;;;;;;6183648;22;93051;-77
2023/05/20 00:44:54;;;;;;;9.00;2.60;;;12.60;70.50;;;;;;6181262;22;92496;-77
2023/05/20 00:47:39;;;;;;;4.07;2.30;;;12.60;70.00;;;;;;6183326;22;93025;-76
2023/05/20 00:50:06;;;;;;;7.95;3.03;;;12.60;70.60;;;;;;6182963;22;93571;-76
2023/05/20 00:52:32;;;;;;;5.20;2.50;;;12.60;70.60;;;;;;6183465;22;92481;-76
2023/05/20 00:54:58;;;;;;;6.47;2.50;;;12.50;70.80;;;;;;6184643;22;91837;-76
2023/05/20 00:57:25;;;;;;;9.45;2.88;;;12.50;71.50;;;;;;6183583;22;92717;-76
2023/05/20 00:59:50;;;;;;;7.75;2.80;;;12.40;71.50;;;;;;6182990;22;93424;-76
2023/05/20 01:02:16;;;;;;;5.53;2.55;;;12.40;70.90;;;;;;6183150;22;93367;-76
2023/05/20 01:04:45;;;;;;;11.25;2.88;;;12.30;72.20;;;;;;6183195;22;92465;-76
2023/05/20 01:07:13;;;;;;;7.20;3.00;;;12.30;71.60;;;;;;6184628;22;93852;-76
2023/05/20 01:09:40;;;;;;;7.32;2.63;;;12.20;71.70;;;;;;6183011;22;93256;-76
2023/05/20 01:12:11;;;;;;;3.88;2.10;;;12.20;72.20;;;;;;6183835;22;92610;-77
2023/05/20 01:14:47;;;;;;;10.25;2.50;;;12.10;72.20;;;;;;6181743;22;92808;-76
2023/05/20 01:17:16;;;;;;;11.18;3.17;;;12.10;72.30;;;;;;6177641;22;93733;-77
2023/05/20 01:19:47;;;;;;;8.05;2.47;;;12.10;73.20;;;;;;6177214;22;93336;-76
2023/05/20 01:22:14;;;;;;;6.32;2.55;;;12.00;72.80;;;;;;6177629;22;92167;-77
2023/05/20 01:24:43;;;;;;;3.88;2.42;;;12.00;73.30;;;;;;6176910;22;92693;-76
2023/05/20 01:27:12;;;;;;;4.75;2.40;;;11.90;74.10;;;;;;6182582;22;94306;-76
2023/05/20 01:29:39;;;;;;;4.65;2.40;;;11.90;74.20;;;;;;6183124;22;93862;-76
2023/05/20 01:32:27;;;;;;;6.57;2.60;;;11.90;73.90;;;;;;6182667;22;92685;-76
2023/05/20 01:34:54;;;;;;;6.22;2.72;;;11.80;73.40;;;;;;6180939;22;92578;-77
2023/05/20 01:37:22;;;;;;;8.60;2.88;;;11.80;74.60;;;;;;6182251;22;93821;-76
2023/05/20 01:39:49;;;;;;;5.97;2.42;;;11.70;74.80;;;;;;6183293;22;93223;-76
2023/05/20 01:42:16;;;;;;;5.75;3.35;;;11.70;74.50;;;;;;6183488;22;92424;-75
2023/05/20 01:44:42;;;;;;;6.18;3.17;;;11.70;74.90;;;;;;6183056;22;91477;-76
2023/05/20 01:47:08;;;;;;;8.63;2.83;;;11.60;75.80;;;;;;6182525;22;92687;-76
2023/05/20 01:49:34;;;;;;;7.38;3.33;;;11.60;76.10;;;;;;6182655;22;93327;-75
2023/05/20 01:51:59;;;;;;;6.93;2.88;;;11.50;76.30;;;;;;6183872;22;93218;-76
2023/05/20 01:54:25;;;;;;;6.22;2.50;;;11.50;76.80;;;;;;6183074;22;92352;-76
2023/05/20 01:56:51;;;;;;;6.15;2.97;;;11.50;75.70;;;;;;6181288;22;93586;-76
2023/05/20 01:59:17;;;;;;;4.45;2.70;;;11.40;76.70;;;;;;6182091;22;93207;-76
2023/05/20 02:01:43;;;;;;;3.15;2.38;;;11.40;76.40;;;;;;6183100;22;92486;-76
2023/05/20 02:04:08;;;;;;;5.00;2.42;;;11.30;76.80;;;;;;6183483;22;93016;-76
2023/05/20 02:06:34;;;;;;;7.45;2.67;;;11.40;77.00;;;;;;6181998;22;93950;-76
2023/05/20 02:09:00;;;;;;;7.25;2.78;;;11.30;77.30;;;;;;6182330;22;92251;-76
2023/05/20 02:11:25;;;;;;;6.43;3.05;;;11.30;78.00;;;;;;6181955;22;92567;-76
2023/05/20 02:13:51;;;;;;;5.40;3.10;;;11.20;77.60;;;;;;6183257;22;92346;-76
2023/05/20 02:16:17;;;;;;;5.68;2.70;;;11.20;77.60;;;;;;6184137;22;94234;-76
2023/05/20 02:18:43;;;;;;;5.95;2.78;;;11.10;77.90;;;;;;6184196;22;98164;-76
2023/05/20 02:21:08;;;;;;;7.97;3.30;;;11.10;78.30;;;;;;6183969;22;92645;-76
2023/05/20 02:23:34;;;;;;;7.20;2.85;;;11.10;78.10;;;;;;6183887;22;92691;-75
2023/05/20 02:26:01;;;;;;;7.90;3.42;;;11.00;78.70;;;;;;6183455;22;93640;-76
2023/05/20 02:28:26;;;;;;;5.88;2.80;;;11.00;78.30;;;;;;6183541;22;92347;-76
2023/05/20 02:30:52;;;;;;;5.55;2.60;;;11.00;78.80;;;;;;6184850;22;92533;-76
2023/05/20 02:33:18;;;;;;;6.75;3.30;;;10.90;79.20;;;;;;6183942;22;91800;-76
2023/05/20 02:35:44;;;;;;;6.32;3.03;;;10.90;79.20;;;;;;6183763;22;94163;-76
2023/05/20 02:38:11;;;;;;;6.85;3.20;;;10.80;80.00;;;;;;6183456;22;93096;-76
2023/05/20 02:40:37;;;;;;;6.57;2.60;;;10.80;80.30;;;;;;6183229;22;93073;-76
2023/05/20 02:43:03;;;;;;;3.50;2.90;;;10.80;79.80;;;;;;6184775;22;92529;-76
2023/05/20 02:45:28;;;;;;;6.32;3.67;;;10.70;80.10;;;;;;6183089;22;93783;-76
2023/05/20 02:47:54;;;;;;;9.75;3.35;;;10.70;81.30;;;;;;6183627;22;93949;-75
2023/05/20 02:50:20;;;;;;;6.30;3.03;;;10.70;80.50;;;;;;6183947;22;92496;-76
2023/05/20 02:52:46;;;;;;;4.07;2.80;;;10.60;80.70;;;;;;6183389;22;92521;-76
2023/05/20 02:55:12;;;;;;;5.95;2.80;;;10.60;81.60;;;;;;6184196;22;94221;-76
2023/05/20 02:57:38;;;;;;;8.80;3.33;;;10.60;81.10;;;;;;6183649;22;93303;-76
2023/05/20 03:00:12;;;;;;;9.05;2.83;;;10.50;82.00;;;;;;6184167;22;92798;-76
2023/05/20 03:02:38;;;;;;;6.65;3.10;;;10.50;82.50;;;;;;6183334;22;92683;-76
2023/05/20 03:05:04;;;;;;;7.00;2.85;;;10.50;82.30;;;;;;6182974;22;94642;-76
2023/05/20 03:07:30;;;;;;;5.90;3.40;;;10.50;82.10;;;;;;6183613;22;93744;-75
2023/05/20 03:09:57;;;;;;;6.70;3.08;;;10.40;82.60;;;;;;6184858;22;92645;-76
2023/05/20 03:12:25;;;;;;;7.78;3.75;;;10.40;83.00;;;;;;6184118;22;92100;-76
2023/05/20 03:14:54;;;;;;;9.65;2.83;;;10.40;83.20;;;;;;6181898;22;95091;-75
2023/05/20 03:17:20;;;;;;;6.55;3.17;;;10.40;82.70;;;;;;6183495;22;92533;-76
2023/05/20 03:19:46;;;;;;;5.95;3.47;;;10.40;83.10;;;;;;6183661;22;92379;-76
2023/05/20 03:22:12;;;;;;;11.73;3.90;;;10.30;84.00;;;;;;6185245;22;91575;-76
2023/05/20 03:24:37;;;;;;;4.63;2.58;;;10.30;83.50;;;;;;6183255;22;94311;-76
2023/05/20 03:27:03;;;;;;;8.93;3.13;;;10.30;83.90;;;;;;6183627;22;93250;-77
2023/05/20 03:29:30;;;;;;;8.40;3.35;;;10.20;84.60;;;;;;6183394;22;93378;-76
2023/05/20 03:31:55;;;;;;;12.75;3.58;;;10.20;84.80;;;;;;6207153;22;92583;-76
2023/05/20 03:34:21;;;;;;;8.45;3.75;;;10.20;85.50;;;;;;6183493;22;93827;-76
2023/05/20 03:36:47;;;;;;;9.07;3.53;;;10.20;85.40;;;;;;6207620;22;95313;-76
2023/05/20 03:39:12;;;;;;;8.80;3.33;;;10.20;85.70;;;;;;6183976;22;92522;-76
2023/05/20 03:41:38;;;;;;;6.78;3.45;;;10.20;85.70;;;;;;6184031;22;92159;-76
2023/05/20 03:44:04;;;;;;;7.80;3.55;;;10.20;85.80;;;;;;6182979;22;92717;-76
2023/05/20 03:46:31;;;;;;;7.05;3.13;;;10.20;86.10;;;;;;6183750;22;93907;-76
2023/05/20 03:48:56;;;;;;;5.82;2.90;;;10.20;86.20;;;;;;6185121;22;92437;-76
2023/05/20 03:51:22;;;;;;;9.02;3.60;;;10.20;86.30;;;;;;6183456;22;92944;-76
2023/05/20 03:53:48;;;;;;;7.28;3.35;;;10.20;86.50;;;;;;6182982;22;93597;-76
2023/05/20 03:56:13;;;;;;;7.38;3.50;;;10.20;86.00;;;;;;6182629;22;94420;-76
2023/05/20 03:58:39;;;;;;;10.88;3.90;;;10.10;85.90;;;;;;6182307;22;92576;-76
2023/05/20 04:01:05;;;;;;;7.15;3.42;;;10.20;86.00;;;;;;6184545;22;92174;-77
2023/05/20 04:03:31;;;;;;;6.22;3.38;;;10.20;85.70;;;;;;6182951;22;94191;-76
2023/05/20 04:05:56;;;;;;;8.77;3.50;;;10.20;86.70;;;;;;6206619;22;95383;-76
2023/05/20 04:08:24;;;;;;;8.60;3.25;;;10.20;87.00;;;;;;6183217;22;92825;-76
2023/05/20 04:10:54;;;;;;;5.25;3.10;;;10.20;86.30;;;;;;6207555;22;91930;-76
2023/05/20 04:13:20;;;;;;;6.00;3.15;;;10.20;87.10;;;;;;6181196;22;94497;-75
2023/05/20 04:15:46;;;;;;;8.80;4.25;;;10.20;87.00;;;;;;6183956;22;93249;-76
2023/05/20 04:18:12;;;;;;;7.47;4.07;;;10.20;86.80;;;;;;6183306;22;93999;-76
2023/05/20 04:20:40;;;;;;;6.00;3.65;;;10.20;86.70;;;;;;6183216;22;92587;-76
2023/05/20 04:23:06;;;;;;;11.38;3.60;;;10.20;86.60;;;;;;6207273;22;95259;-76
2023/05/20 04:25:32;;;;;;;9.32;3.47;;;10.20;86.50;;;;;;6182510;22;93819;-76
2023/05/20 04:27:59;;;;;;;9.32;3.92;;;10.30;87.30;;;;;;6207943;22;92514;-76
2023/05/20 04:30:25;;;;;;;9.45;3.60;;;10.30;87.00;;;;;;6181593;22;92715;-76
2023/05/20 04:32:50;;;;;;;7.72;3.90;;;10.30;87.10;;;;;;6182434;22;93560;-76
2023/05/20 04:35:17;;;;;;;11.50;4.25;;;10.30;87.70;;;;;;6181707;22;93260;-76
2023/05/20 04:37:51;;;;;;;8.32;3.97;;;10.30;87.50;;;;;;6183846;22;92350;-76
2023/05/20 04:40:17;;;;;;;7.28;4.10;;;10.40;87.30;;;;;;6208759;22;92407;-76
2023/05/20 04:42:44;;;;;;;16.63;4.13;;;10.40;87.80;;;;;;6182616;22;99519;-76
2023/05/20 04:45:11;;;;;;;6.57;3.80;;;10.40;87.70;;;;;;6182648;22;94383;-76
2023/05/20 04:47:37;;;;;;;8.00;3.83;;;10.50;87.70;;;;;;6183181;22;92462;-76
2023/05/20 04:50:10;;;;;;;9.02;3.92;;;10.50;87.70;;;;;;6182926;22;92560;-76
2023/05/20 04:52:37;;;;;;;9.48;3.90;;;10.60;88.00;;;;;;6182788;22;93010;-76
2023/05/20 04:55:05;;;;;;;6.05;3.90;;;10.60;87.60;;;;;;6183923;22;93292;-76
2023/05/20 04:57:33;;;;;;;6.30;3.63;;;10.70;88.00;;;;;;6183172;22;92328;-77
2023/05/20 04:59:59;;;;;;;8.43;4.05;;;10.70;87.60;;;;;;6183971;22;91542;-76
2023/05/20 05:02:25;;;;;;;6.43;4.15;;;10.80;87.20;;;;;;6182989;22;93957;-76
2023/05/20 05:04:51;;;;;;;9.13;3.83;;;10.90;87.40;;;;;;6183074;22;93147;-76
2023/05/20 05:07:16;;;;;;;10.38;3.80;;;10.90;87.30;;;;;;6183485;22;93516;-76
2023/05/20 05:09:42;;;;;;;10.35;4.40;;;11.00;87.40;;;;;;6182879;22;92408;-76
2023/05/20 05:12:07;;;;;;;6.32;4.15;;;11.00;87.40;;;;;;6182545;22;93861;-76
2023/05/20 05:14:33;;;;;;;6.57;4.07;;;11.10;86.90;;;;;;6182828;22;93295;-75
2023/05/20 05:16:59;;;;;;;11.25;4.35;;;11.10;87.20;;;;;;6183646;22;92506;-76
2023/05/20 05:19:24;;;;;;;7.55;4.03;;;11.20;86.80;;;;;;6182922;22;92370;-75
2023/05/20 05:21:50;;;;;;;8.38;4.40;;;11.30;86.70;;;;;;6183407;22;92927;-76
2023/05/20 05:24:16;;;;;;;9.70;4.30;;;11.40;86.60;;;;;;6183270;22;93147;-76
2023/05/20 05:26:41;;;;;;;8.57;4.22;;;11.40;86.60;;;;;;6183591;22;92723;-76
2023/05/20 05:29:08;;;;;;;7.72;4.05;;;11.50;86.60;;;;;;6183034;22;92206;-76
2023/05/20 05:31:34;;;;;;;6.43;4.10;;;11.60;86.00;;;;;;6180165;22;96241;-77
2023/05/20 05:34:00;;;;;;;6.07;4.00;;;11.70;86.30;;;;;;6207519;22;95745;-76
2023/05/20 05:36:25;;;;;;;6.47;3.78;;;11.80;85.90;;;;;;6206691;22;92550;-76
2023/05/20 05:38:51;;;;;;;7.57;4.15;;;11.90;85.60;;;;;;6182815;22;92175;-76
2023/05/20 05:41:17;;;;;;;7.45;4.25;;;12.00;84.60;;;;;;6182527;22;93931;-76
2023/05/20 05:43:42;;;;;;;10.23;3.95;;;12.00;84.80;;;;;;6182495;22;92685;-76
2023/05/20 05:46:08;;;;;;;8.52;3.70;;;12.20;83.70;;;;;;6183135;22;92444;-76
2023/05/20 05:48:35;;;;;;;8.43;4.15;;;12.20;83.70;;;;;;6184095;22;91966;-75
2023/05/20 05:51:01;;;;;;;7.93;4.30;;;12.40;84.90;;;;;;6182975;22;94406;-75
2023/05/20 05:53:27;;;;;;;11.63;4.15;;;12.50;83.90;;;;;;6182947;22;92818;-76
2023/05/20 05:55:52;;;;;;;7.20;4.03;;;12.60;83.60;;;;;;6183395;22;93496;-75
2023/05/20 05:58:18;;;;;;;7.93;4.38;;;12.70;83.50;;;;;;6184058;22;92700;-75
2023/05/20 06:00:44;;;;;;;6.00;3.85;;;12.80;82.70;;;;;;6184001;22;93210;-76
2023/05/20 06:03:09;;;;;;;7.68;4.13;;;12.90;82.30;;;;;;6207450;22;95420;-75
2023/05/20 06:05:35;;;;;;;8.52;3.85;;;13.00;81.80;;;;;;6184292;22;92564;-76
2023/05/20 06:08:01;;;;;;;8.45;3.78;;;13.10;81.40;;;;;;6182790;22;92623;-76
2023/05/20 06:10:27;;;;;;;5.80;3.33;;;13.20;81.20;;;;;;6183360;22;94088;-76
2023/05/20 06:12:52;;;;;;;7.63;4.10;;;13.30;81.50;;;;;;6184512;22;92726;-75
2023/05/20 06:15:18;;;;;;;12.25;3.60;;;13.50;81.10;;;;;;6183666;22;92370;-76
2023/05/20 06:17:44;;;;;;;12.27;3.22;;;13.50;79.80;;;;;;6183590;22;92612;-75
2023/05/20 06:20:10;;;;;;;6.93;3.40;;;13.70;80.10;;;;;;6182720;22;94640;-75
2023/05/20 06:22:36;;;;;;;7.32;3.78;;;13.80;79.00;;;;;;6183576;22;95729;-76
2023/05/20 06:25:01;;;;;;;6.13;3.45;;;13.90;78.60;;;;;;6184998;22;92717;-75
2023/05/20 06:27:27;;;;;;;7.78;3.50;;;14.00;79.20;;;;;;6183800;22;92458;-76
2023/05/20 06:29:53;;;;;;;5.57;3.08;;;14.10;78.30;;;;;;6183763;22;93120;-76
2023/05/20 06:32:19;;;;;;;6.45;3.63;;;14.20;77.80;;;;;;6183322;22;93063;-75
2023/05/20 06:34:44;;;;;;;6.38;3.15;;;14.30;77.60;;;;;;6183692;22;92558;-75
2023/05/20 06:37:10;;;;;;;7.68;3.60;;;14.50;77.20;;;;;;6183990;22;91735;-75
2023/05/20 06:39:36;;;;;;;7.53;3.00;;;14.50;76.60;;;;;;6183087;22;94416;-74
2023/05/20 06:42:02;;;;;;;10.75;3.33;;;14.70;77.80;;;;;;6183583;22;93236;-75
2023/05/20 06:44:29;;;;;;;4.13;3.13;;;14.80;76.20;;;;;;6183165;22;93360;-75
2023/05/20 06:46:55;;;;;;;5.47;3.30;;;14.90;76.20;;;;;;6175842;22;92236;-74
2023/05/20 06:49:21;;;;;;;7.00;3.42;;;15.00;77.10;;;;;;6199396;22;93987;-75
2023/05/20 06:51:47;;;;;;;7.60;3.08;;;15.20;75.10;;;;;;6185312;22;92861;-79
2023/05/20 06:54:13;;;;;;;5.43;3.35;;;15.30;74.40;;;;;;6184521;22;92386;-76
2023/05/20 06:56:38;;;;;;;7.32;3.65;;;15.50;74.60;;;;;;6182611;22;92791;-75
2023/05/20 06:59:04;;;;;;;8.27;3.45;;;15.50;73.20;;;;;;6183457;22;93726;-77
2023/05/20 07:01:30;;;;;;;7.85;2.90;;;15.60;73.30;;;;;;6185675;22;92798;-76
2023/05/20 07:03:55;;;;;;;4.40;3.05;;;15.60;73.30;;;;;;6186453;22;92388;-76
2023/05/20 07:06:22;;;;;;;9.13;3.63;;;15.80;72.70;;;;;;6183978;22;92872;-78
2023/05/20 07:08:48;;;;;;;6.38;3.45;;;15.90;73.00;;;;;;6205944;22;97086;-77
2023/05/20 07:11:13;;;;;;;6.63;3.10;;;16.00;72.30;;;;;;6183081;22;93292;-77
2023/05/20 07:13:39;;;;;;;4.28;2.80;;;16.10;70.90;;;;;;6183530;22;92546;-77
2023/05/20 07:16:05;;;;;;;6.75;3.35;;;16.20;71.90;;;;;;6183787;22;92563;-77
2023/05/20 07:18:31;;;;;;;7.07;3.47;;;16.30;70.10;;;;;;6182883;22;93593;-77
2023/05/20 07:20:56;;;;;;;4.63;2.90;;;16.40;70.20;;;;;;6180958;22;94963;-77
2023/05/20 07:23:23;;;;;;;7.95;3.08;;;16.60;70.20;;;;;;6183352;22;92107;-77
2023/05/20 07:25:48;;;;;;;5.93;3.00;;;16.60;68.20;;;;;;6182475;22;91657;-77
2023/05/20 07:28:17;;;;;;;5.35;2.83;;;16.70;70.00;;;;;;6183478;22;93666;-76
2023/05/20 07:30:48;;;;;;;4.95;2.70;;;16.90;68.30;;;;;;6183325;22;97448;-77
2023/05/20 07:33:17;;;;;;;6.43;2.88;;;16.90;66.30;;;;;;6182648;22;93493;-75
2023/05/20 07:35:44;;;;;;;6.47;2.92;;;17.00;66.90;;;;;;6179949;22;92310;-77
2023/05/20 07:38:11;;;;;;;8.32;3.45;;;17.10;66.30;;;;;;6182038;22;93672;-76
2023/05/20 07:40:39;;;;;;;5.28;2.78;;;17.20;66.60;;;;;;6180078;22;95817;-76
2023/05/20 07:43:06;;;;;;;4.90;2.97;;;17.30;65.80;;;;;;6183929;22;92488;-76
2023/05/20 07:45:33;;;;;;;6.65;2.60;;;17.40;65.70;;;;;;6182715;22;92489;-77
2023/05/20 07:48:00;;;;;;;4.00;2.97;;;17.50;66.40;;;;;;6183025;22;93606;-76
2023/05/20 07:50:25;;;;;;;4.70;2.63;;;17.60;66.70;;;;;;6183179;22;93170;-76
2023/05/20 07:52:51;;;;;;;6.00;3.03;;;17.80;66.40;;;;;;6181491;22;92380;-77
2023/05/20 07:55:17;;;;;;;4.82;2.70;;;17.90;65.40;;;;;;6181776;22;92092;-77
2023/05/20 07:57:43;;;;;;;7.47;2.97;;;17.90;63.90;;;;;;6181427;22;98597;-77
2023/05/20 08:00:10;;;;;;;7.78;3.33;;;18.00;63.50;;;;;;6182673;22;94144;-76
2023/05/20 08:02:36;;;;;;;3.65;2.80;;;18.00;64.50;;;;;;6181857;22;92479;-76
2023/05/20 08:05:02;;;;;;;7.93;2.90;;;18.10;63.80;;;;;;6175593;22;92489;-76
2023/05/20 08:07:27;;;;;;;5.05;2.80;;;18.20;64.80;;;;;;6176579;22;92653;-76
2023/05/20 08:09:53;;;;;;;6.00;2.90;;;18.30;63.70;;;;;;6175859;22;93138;-77
2023/05/20 08:12:19;;;;;;;6.63;2.95;;;18.50;63.50;;;;;;6177434;22;92502;-76
2023/05/20 08:14:45;;;;;;;3.85;2.67;;;18.60;62.10;;;;;;6180429;22;91397;-76
2023/05/20 08:17:10;;;;;;;4.93;2.80;;;18.70;61.50;;;;;;6180694;22;95868;-76
2023/05/20 08:19:36;;;;;;;5.25;2.90;;;18.80;60.40;;;;;;6181974;22;93164;-76
2023/05/20 08:22:01;;;;;;;5.00;2.53;;;18.90;61.90;;;;;;6183302;22;93673;-76
2023/05/20 08:24:27;;;;;;;3.60;2.85;;;19.00;61.70;;;;;;6182868;22;92405;-76
2023/05/20 08:26:53;;;;;;;5.22;2.95;;;19.00;61.10;;;;;;6182361;22;93186;-76
2023/05/20 08:29:18;;;;;;;4.22;2.45;;;19.10;61.80;;;;;;6182433;22;92100;-75
2023/05/20 08:31:44;;;;;;;4.53;2.60;;;19.40;62.50;;;;;;6182576;22;92663;-77
2023/05/20 08:34:10;;;;;;;5.55;2.60;;;19.60;61.50;;;;;;6183577;22;92632;-76
2023/05/20 08:36:35;;;;;;;6.72;2.75;;;19.70;61.00;;;;;;6181932;22;94408;-77
2023/05/20 08:39:01;;;;;;;5.88;3.25;;;19.80;61.20;;;;;;6183134;22;93656;-77
2023/05/20 08:41:27;;;;;;;4.13;2.53;;;19.90;58.60;;;;;;6182937;22;92575;-76
2023/05/20 08:43:53;;;;;;;4.43;3.13;;;20.00;60.40;;;;;;6182663;22;92487;-77
2023/05/20 08:46:21;;;;;;;4.65;2.85;;;20.00;58.30;;;;;;6182371;22;94587;-76
2023/05/20 08:48:48;;;;;;;6.45;3.00;;;19.90;59.10;;;;;;6183910;22;92521;-76
2023/05/20 08:51:16;;;;;;;5.68;2.92;;;19.90;57.90;;;;;;6183508;22;92559;-77
2023/05/20 08:53:42;;;;;;;3.85;2.90;;;20.00;59.50;;;;;;6183131;22;92399;-76
2023/05/20 08:56:10;;;;;;;6.28;3.20;;;19.90;58.90;;;;;;6181650;22;93491;-76
2023/05/20 08:58:36;;;;;;;4.78;3.22;;;20.10;59.40;;;;;;6182723;22;93221;-76
2023/05/20 09:01:02;;;;;;;8.43;3.05;;;20.30;58.80;;;;;;6207735;22;92626;-77
2023/05/20 09:03:27;;;;;;;6.18;3.38;;;20.40;58.90;;;;;;6183881;22;91848;-77
2023/05/20 09:06:02;;;;;;;6.00;3.28;;;20.70;57.70;;;;;;6183057;22;92702;-77
2023/05/20 09:08:30;;;;;;;3.95;2.92;;;20.90;57.80;;;;;;6182633;22;93190;-76
2023/05/20 09:10:55;;;;;;;5.20;3.30;;;20.90;57.20;;;;;;6181316;22;93490;-76
2023/05/20 09:13:23;;;;;;;6.13;3.22;;;21.00;57.30;;;;;;6182445;22;92603;-76
2023/05/20 09:15:49;;;;;;;5.95;2.67;;;21.20;56.90;;;;;;6183064;22;94011;-76
2023/05/20 09:18:14;;;;;;;4.57;2.72;;;21.40;56.90;;;;;;6181918;22;93386;-78
2023/05/20 09:20:40;;;;;;;7.68;3.10;;;21.40;54.90;;;;;;6182901;22;92512;-78
2023/05/20 09:23:08;;;;;;;3.70;2.38;;;21.40;56.70;;;;;;6182385;22;92308;-79
2023/05/20 09:25:35;;;;;;;9.50;3.30;;;21.40;55.70;;;;;;6182371;22;94136;-77
2023/05/20 09:28:04;;;;;;;7.47;2.92;;;21.20;55.60;;;;;;6182076;22;95207;-76
2023/05/20 09:30:32;;;;;;;6.28;3.55;;;21.30;55.50;;;;;;6181465;22;92287;-76
2023/05/20 09:32:59;;;;;;;5.60;3.20;;;21.40;57.50;;;;;;6181370;22;92560;-76
2023/05/20 09:35:26;;;;;;;4.38;3.13;;;21.70;55.80;;;;;;6180282;22;94531;-76
2023/05/20 09:37:57;;;;;;;5.25;2.70;;;21.80;55.50;;;;;;6180105;22;96978;-76
2023/05/20 09:40:27;;;;;;;7.68;3.63;;;22.10;54.90;;;;;;6182335;22;92458;-77
2023/05/20 09:43:01;;;;;;;6.40;3.40;;;22.30;54.00;;;;;;6182309;22;92422;-77
2023/05/20 09:45:27;;;;;;;8.15;3.78;;;22.40;54.30;;;;;;6181018;22;93501;-76
2023/05/20 09:47:53;;;;;;;5.47;3.28;;;22.50;53.50;;;;;;6180411;22;96055;-76
2023/05/20 09:50:22;;;;;;;4.75;3.17;;;22.60;53.90;;;;;;6182456;22;92621;-76
2023/05/20 09:52:49;;;;;;;7.13;3.40;;;22.70;54.50;;;;;;6180615;22;92064;-77
2023/05/20 09:55:19;;;;;;;8.43;3.50;;;22.80;52.20;;;;;;6182424;22;94051;-76
2023/05/20 09:57:46;;;;;;;5.95;3.13;;;22.90;53.90;;;;;;6181689;22;97551;-76
2023/05/20 10:00:16;;;;;;;7.50;3.78;;;23.10;53.10;;;;;;6181417;22;93622;-76
2023/05/20 10:02:43;;;;;;;7.28;3.40;;;23.20;51.10;;;;;;6181636;22;92219;-76
2023/05/20 10:05:16;;;;;;;6.22;3.22;;;23.30;51.60;;;;;;6181641;22;93318;-75
2023/05/20 10:07:58;;;;;;;3.88;2.97;;;23.60;53.70;;;;;;6181094;22;93414;-76
2023/05/20 10:10:43;;;;;;;8.20;3.20;;;23.90;53.60;;;;;;6181764;22;92488;-77
2023/05/20 10:13:22;;;;;;;4.20;3.00;;;24.10;49.90;;;;;;6182290;22;92725;-76
2023/05/20 10:15:58;;;;;;;3.95;2.85;;;23.90;50.40;;;;;;6182188;22;98317;-78
2023/05/20 10:18:58;;;;;;;11.20;3.40;;;24.00;51.20;;;;;;6181731;22;92959;-77
2023/05/20 10:21:24;;;;;;;9.55;3.25;;;23.90;51.40;;;;;;6181894;22;92646;-77
2023/05/20 10:23:51;;;;;;;5.20;3.58;;;23.70;50.40;;;;;;6181233;22;92475;-77
2023/05/20 10:26:17;;;;;;;5.18;3.25;;;23.80;51.60;;;;;;6180203;22;94194;-77
2023/05/20 10:28:44;;;;;;;4.78;2.80;;;23.90;51.20;;;;;;6179291;22;93953;-77
2023/05/20 10:31:22;;;;;;;6.75;3.10;;;24.00;52.00;;;;;;6181476;22;92580;-77
2023/05/20 10:33:52;;;;;;;8.57;4.15;;;24.00;51.40;;;;;;6182001;22;92569;-77
2023/05/20 10:36:29;;;;;;;7.97;2.95;;;24.30;50.50;;;;;;6181690;22;93533;-77
2023/05/20 10:38:58;;;;;;;6.72;2.90;;;24.50;50.60;;;;;;6181178;22;93870;-79
2023/05/20 10:41:27;;;;;;;5.65;2.95;;;24.80;50.10;;;;;;6183543;22;92662;-77
2023/05/20 10:44:05;;;;;;;5.95;2.95;;;25.00;49.80;;;;;;6181622;22;92103;-76
2023/05/20 10:46:32;;;;;;;6.15;3.05;;;25.10;48.90;;;;;;6182785;22;92810;-75
2023/05/20 10:48:58;;;;;;;8.75;3.03;;;25.10;48.80;;;;;;6184363;22;93262;-77
2023/05/20 10:51:27;;;;;;;4.97;2.78;;;25.20;49.20;;;;;;6183502;22;93520;-78
2023/05/20 10:53:54;;;;;;;3.70;2.60;;;25.10;49.40;;;;;;6183097;22;92708;-77
2023/05/20 10:56:22;;;;;;;5.93;2.70;;;25.30;49.80;;;;;;6183050;22;93245;-78
2023/05/20 10:58:49;;;;;;;3.92;2.75;;;25.40;49.50;;;;;;6183085;22;92983;-78
2023/05/20 11:01:17;;;;;;;8.88;3.38;;;25.50;48.80;;;;;;6184196;22;92574;-78
2023/05/20 11:03:45;;;;;;;3.78;2.40;;;25.60;47.40;;;;;;6181744;22;93499;-79
2023/05/20 11:06:14;;;;;;;5.82;2.60;;;25.70;48.90;;;;;;6183338;22;93478;-80
2023/05/20 11:08:40;;;;;;;4.88;2.75;;;25.90;48.50;;;;;;6183887;22;93669;-80
2023/05/20 11:11:06;;;;;;;4.63;2.22;;;26.20;47.50;;;;;;6181876;22;92566;-78
2023/05/20 11:13:32;;;;;;;5.28;2.70;;;26.30;48.40;;;;;;6182225;22;92380;-77
2023/05/20 11:15:59;;;;;;;3.15;2.38;;;26.30;47.50;;;;;;6183106;22;95107;-77
2023/05/20 11:18:31;;;;;;;5.18;3.05;;;26.30;46.50;;;;;;6182623;22;93865;-78
2023/05/20 11:21:01;;;;;;;8.40;2.50;;;26.40;47.20;;;;;;6183302;22;92889;-78
2023/05/20 11:23:28;;;;;;;7.50;2.42;;;26.30;47.40;;;;;;6183672;22;92515;-79
2023/05/20 11:25:55;;;;;;;5.97;2.40;;;26.10;46.80;;;;;;6183122;22;93259;-80
2023/05/20 11:28:22;;;;;;;4.68;2.35;;;26.10;47.70;;;;;;6183307;22;93652;-75
2023/05/20 11:30:49;;;;;;;3.55;2.50;;;26.40;48.00;;;;;;6183983;22;92226;-75
2023/05/20 11:33:16;;;;;;;4.00;2.10;;;26.90;46.60;;;;;;6183567;22;91299;-75
2023/05/20 11:35:46;;;;;;;4.57;2.13;;;27.20;47.90;;;;;;6183050;22;93170;-76
2023/05/20 11:38:11;;;;;;;6.28;2.20;;;27.20;45.30;;;;;;6182359;22;93673;-75
2023/05/20 11:40:44;;;;;;;5.45;2.47;;;26.90;46.60;;;;;;6181379;22;93555;-75
2023/05/20 11:43:11;;;;;;;4.50;2.08;;;27.00;44.80;;;;;;6181245;22;92537;-71
2023/05/20 11:45:40;;;;;;;6.07;2.40;;;26.90;46.40;;;;;;6181411;22;92640;-74
2023/05/20 11:48:06;;;;;;;12.13;3.20;;;26.60;45.60;;;;;;6181781;22;93029;-74
2023/05/20 11:50:39;;;;;;;5.47;2.58;;;26.50;46.00;;;;;;6182787;22;92114;-75
2023/05/20 11:53:06;;;;;;;2.60;2.17;;;26.60;47.00;;;;;;6182441;22;92518;-74
2023/05/20 11:55:32;;;;;;;2.22;1.90;;;26.60;47.20;;;;;;6180645;22;92598;-75
2023/05/20 11:57:59;;;;;;;4.47;2.30;;;26.90;46.50;;;;;;6183601;22;93232;-74
2023/05/20 12:00:25;;;;;;;4.93;2.40;;;27.20;45.90;;;;;;6181492;22;92639;-74
2023/05/20 12:02:51;;;;;;;4.05;2.20;;;27.50;45.20;;;;;;6182070;22;92542;-75
2023/05/20 12:05:16;;;;;;;3.53;2.55;;;27.60;46.80;;;;;;6206059;22;96578;-75
2023/05/20 12:07:43;;;;;;;4.15;2.33;;;27.60;45.00;;;;;;6181383;22;95207;-75
2023/05/20 12:10:09;;;;;;;2.70;1.77;;;27.90;45.70;;;;;;6184307;22;92239;-74
2023/05/20 12:12:36;;;;;;;4.63;2.28;;;28.30;47.80;;;;;;6182759;22;92419;-75
2023/05/20 12:15:05;;;;;;;3.50;2.20;;;28.80;43.90;;;;;;6182719;22;93621;-75
2023/05/20 12:17:48;;;;;;;4.15;2.88;;;28.80;43.30;;;;;;6182518;22;93347;-74
2023/05/20 12:20:15;;;;;;;8.30;2.60;;;28.90;43.50;;;;;;6182446;22;92128;-72
2023/05/20 12:22:42;;;;;;;2.95;2.10;;;28.70;43.30;;;;;;6183187;22;91788;-72
2023/05/20 12:25:11;;;;;;;5.07;2.40;;;28.60;44.00;;;;;;6183007;22;93136;-72
2023/05/20 12:27:37;;;;;;;4.72;2.83;;;28.50;44.30;;;;;;6182310;22;93337;-75
2023/05/20 12:30:04;;;;;;;3.00;2.38;;;28.10;42.60;;;;;;6182851;22;93478;-75
2023/05/20 12:32:29;;;;;;;3.92;2.65;;;27.70;44.10;;;;;;6182476;22;92753;-74
2023/05/20 12:34:55;;;;;;;9.18;2.47;;;27.90;45.50;;;;;;6182237;22;93542;-74
2023/05/20 12:37:21;;;;;;;3.97;2.40;;;28.30;45.10;;;;;;6181980;22;92806;-75
2023/05/20 12:39:46;;;;;;;5.25;2.83;;;28.70;44.30;;;;;;6183903;22;92730;-75
2023/05/20 12:42:12;;;;;;;3.45;2.40;;;28.80;43.40;;;;;;6181999;22;95515;-71
2023/05/20 12:44:38;;;;;;;4.93;2.70;;;28.90;44.30;;;;;;6181024;22;93591;-72